Observations for BOSCOMBE DOWN, United Kingdom (EGDM)

EGDM 241950Z AUTO 23018KT 9999 -RADZ OVC007/// 12/10 Q1009  
EGDM 241850Z AUTO 22017KT 9999 -RA BKN009/// BKN018/// 12/10 Q1009  
EGDM 241750Z AUTO 22017KT 9999 BKN010/// SCT150/// 12/10 Q1009  
EGDM 241650Z 21014KT 9999 FEW005 BKN007 BKN015 12/11 Q1010 GRN  
EGDM 241537Z 21017KT 4000 -DZ OVC004 12/11 Q1011 YLO2 TEMPO 7000 BKN005 YLO1
EGDM 241537Z 21017KT 4000 -DZ OVC004 12/11 Q1011 YLO2 TEMPO 7000 BKN005 YLO1
EGDM 241450Z 20019KT 9999 -DZ OVC004 12/11 Q1012 YLO2 TEMPO 5000 YLO2   
EGDM 241425Z 20018KT 4000 -DZ OVC004 12/11 Q1012 YLO2 TEMPO 6000 BKN005 YLO1
EGDM 241425Z 20018KT 4000 -DZ OVC004 12/11 Q1012 YLO2 TEMPO 6000 BKN005 YLO1
EGDM 241350Z 21015KT 9000 -DZ FEW004 OVC006 12/10 Q1013 YLO1 TEMPO 5000 SCT004 YLO2 
EGDM 241250Z 20019KT 9999 BKN009 OVC020 13/10 Q1013 GRN TEMPO 7000 -RA GRN
EGDM 241246Z 21019KT 9999 FEW009 BKN010 OVC020 13/10 Q1013 GRN NOSIG
EGDM 241220Z 21016KT 9999 FEW014 SCT020 BKN060 14/10 Q1014 WHT BECMG SCT014 GRN 
EGDM 241220Z 21016KT 9999 FEW014 SCT020 BKN060 14/10 Q1014 WHT BECMG SCT014 GRN
EGDM 241246Z 21019KT 9999 FEW009 BKN010 OVC020 13/10 Q1013 GRN NOSIG
EGDM 241150Z 21017KT 9999 FEW025 BKN050 15/07 Q1014 BLU BECMG SCT020 WHT
EGDM 241050Z 19010KT 9999 FEW024 BKN055 14/08 Q1015 BLU NOSIG   
EGDM 240950Z 22009KT 9999 FEW018 BKN060 13/08 Q1016 BLU NOSIG   
EGDM 240850Z 23008KT 9999 FEW014 BKN070 12/08 Q1016 BLU NOSIG   
EGDM 240750Z 27008KT 9999 FEW014 BKN070 11/08 Q1016 BLU NOSIG   
EGDM 240650Z 25008KT 9999 FEW012 BKN080 10/08 Q1016 BLU NOSIG   
EGDM 240550Z 27009KT 9999 -RA FEW015 BKN080 10/08 Q1016 BLU 
EGDM 240450Z AUTO 26007KT 9999 -RA BKN014/// 10/08 Q1015
EGDM 240350Z AUTO 27010KT 9999 BKN014/// SCT080/// BKN220/// 11/08 Q1015
EGDM 240250Z AUTO 25009KT 9999 SCT012/// SCT070/// BKN110/// 11/09 Q1015
EGDM 240150Z AUTO 24010KT 9999 BKN011/// BKN070/// 11/09 Q1015  
EGDM 240050Z AUTO 23009KT 9999 BKN011/// BKN140/// 10/08 Q1015  
EGDM 232350Z AUTO 22010KT 9999 OVC012/// 11/08 Q1016
EGDM 232250Z AUTO 21010KT 9999 BKN015/// 10/08 Q1016
EGDM 232150Z AUTO 21009KT 9999 BKN021/// 11/07 Q1016
EGDM 232050Z AUTO 21011KT 9999 SCT027/// SCT090/// BKN140/// 11/07 Q1016
EGDM 231950Z AUTO 21009KT 9999 BKN032/// 11/07 Q1016